Aérodrome :
LOGIN :

S'inscrire | Disclaimer

   EN    FR    IT 

 










Légende :    VFR   VFR Marginal   IFR   IFR Intensif   IFR Très Intensif
Visi : 
Plafond : 
>= 8 km
>= 3000ft
5 à 8 km
1000 à 3000 ft
1500m à 5 km
500 à 1000 ft
800 à 1500m
200 à 500 ft
< 800m
< 200 ft
Symboles :   Orages  Brouillard  Fortes neiges  Fortes précipitations  Vent > 20 kt
SIGMETs :   Divers  Orages  Givrage  Turbulence  Onde Orograph.  Cendres Volcan.







- Altitude de l'aérodrome : 32 ft
- Code IATA : LKZ


EGUL - RAF Lakenheath

DERNIER METAR :
  • 180956Z AUTO 07010KT 9999 CLR 09/05 A3040 RMK AO2 SLP298 T00870053 $

METARs EXPIRÉS :
  • 180856Z AUTO 08010KT 9999 CLR 07/04 A3040 RMK AO2 SLP298 T00720043 50006 $
  • 180756Z AUTO 07010KT 9999 CLR 06/04 A3040 RMK AO2 SLP298 T00570035 $

TAF AMD TAF EGUL
Valide du 17 à 16h jusqu'au 18 à 18h UTC


171556Z 1716/1818 10009KT 9999 SCT010 QNH3036INS
BECMG 1716/1717 09009KT 9999 SCT015 QNH3037INS
BECMG 1722/1723 09009KT 9999 SCT010 QNH3040INS
BECMG 1809/1810 08009KT 9999 FEW025 QNH3040INS TX12/1813Z TN04/1805Z LAST NO AMDS AFT 1716 NEXT 1820
Pas de NOTAMs connus pour ce terrain.



MET'MAP, la Météo Aéronautique d'un coup d'oeil ! - Copyright ORBIFLY Décembre 2007 - Disclaimer

ORBIFLY MET'MAP TEAM :

Programmation & Développement : Alexandra Zaïnal
Conception & Développement : Baudouin d'Aumeries
Co-Programmation & Développement : Marc-Olivier Méhu
Soutien technique & logistique : Manuel Goepfert

Contact : metmap@orbifly.com




SOURCES & CREDITS :

   NOAA